Cooks, MI

10:41 PM EST del 23 novembre 2014 (GMT -0500)
Delta County | Change Station
CLOSE
Current Station
Aeroporto
Location: Escanaba,
Altitudine: 607 ft
Stazioni meteo nelle vicinanze

Alt. 607 ft 45.72 °N, 87.09 °W | Updated 6 minutes ago

Pioggia
Pioggia
41 °F
Sembra 39 °F
N
4
Vento Variabile Vento da ENE

Oggi
Massima -- | Minima -- °F
--% Possibilità di precip.
Ieri
Massima -- | Minima -- °F
Precip. -- in
7:57 AM 5:07 PM
Luna crescente, 3% visible
Pressione 29.30 in
Visibilità 1.0 miglia
Nuvole Coperto 300 ft
Raffreddamento del vento 39 °F
Punto di rugiada 39 °F
Umidità 93%
Piovosità 0.22 in
Spessore del manto nevoso Non disponibile.
Raggi UV 0 fuori da 12
Polline .10 fuori da 12
Qualità dell'aria Non disponibile.
Flu Activity Non disponibile.
METAR KESC 240335Z AUTO 07003KT 1SM OVC003 05/04 A2930 RMK AO1 P0003

More Conditions Fewer Conditions

Pressione 29.30 in
Visibilità 1.0 miglia
Nuvole Coperto 300 ft
Raffreddamento del vento 39 °F
Punto di rugiada 39 °F
Umidità 93%
Piovosità 0.22 in
Spessore del manto nevoso Non disponibile.
Raggi UV 0 fuori da 12
Polline .10 fuori da 12
Qualità dell'aria Non disponibile.
Flu Activity Non disponibile.
METAR KESC 240335Z AUTO 07003KT 1SM OVC003 05/04 A2930 RMK AO1 P0003

More Conditions Fewer Conditions

10-Day Weather Forecast

Almanac

Astronomia

Nov. 23, 2014 Alba Tramonto
Ora attuale
Crepuscolo civile
Crepuscolo nautico
Crepuscolo astronomico
Luna
Estensione della luce visibile
Lunghezza del giorno
Tomorrow will be .
, % of the Moon is Illuminated

Gli estremi di oggi

State Highs State Lows

Community

WunderPhotos

Upload Photos

1,773,262 foto caricate!

WunderBlogs® & News

Nearby

Qualità dell'aria

  Qualità dell'aria Indice AQ Inquinante
Not available.

Profondità neve

Stazione Profondità Altitudine

Attività sismica

Città  Distanza Mag. Data & Ora
Minimo Magnitudo Mostrato è 2.5.

Temperature delle acque costiere

Località Temperatura

Stazioni meteo nelle vicinanze